sensor_id;sensor_type;location;lat;lon;timestamp;P1;durP1;ratioP1;P2;durP2;ratioP2
49412;SDS011;35493;50.276;9.372;2022-12-18T00:01:01;18.73;;;8.40;;
49412;SDS011;35493;50.276;9.372;2022-12-18T00:03:38;21.73;;;8.32;;
49412;SDS011;35493;50.276;9.372;2022-12-18T00:06:13;18.65;;;9.13;;
49412;SDS011;35493;50.276;9.372;2022-12-18T00:11:13;19.55;;;9.00;;
49412;SDS011;35493;50.276;9.372;2022-12-18T00:13:42;19.02;;;9.27;;
49412;SDS011;35493;50.276;9.372;2022-12-18T00:16:11;20.70;;;9.07;;
49412;SDS011;35493;50.276;9.372;2022-12-18T00:18:39;18.13;;;8.77;;
49412;SDS011;35493;50.276;9.372;2022-12-18T00:21:07;21.40;;;10.30;;
49412;SDS011;35493;50.276;9.372;2022-12-18T00:23:37;22.25;;;9.68;;
49412;SDS011;35493;50.276;9.372;2022-12-18T00:26:07;23.60;;;9.52;;
49412;SDS011;35493;50.276;9.372;2022-12-18T00:28:43;19.33;;;9.65;;
49412;SDS011;35493;50.276;9.372;2022-12-18T00:31:10;20.25;;;9.15;;
49412;SDS011;35493;50.276;9.372;2022-12-18T00:33:39;20.73;;;9.10;;
49412;SDS011;35493;50.276;9.372;2022-12-18T00:36:09;19.00;;;8.45;;
49412;SDS011;35493;50.276;9.372;2022-12-18T00:38:38;18.13;;;8.07;;
49412;SDS011;35493;50.276;9.372;2022-12-18T00:41:07;19.95;;;8.77;;
49412;SDS011;35493;50.276;9.372;2022-12-18T00:43:35;17.93;;;8.93;;
49412;SDS011;35493;50.276;9.372;2022-12-18T00:46:02;22.55;;;9.95;;
49412;SDS011;35493;50.276;9.372;2022-12-18T00:48:30;19.08;;;9.55;;
49412;SDS011;35493;50.276;9.372;2022-12-18T00:50:57;18.70;;;9.55;;
49412;SDS011;35493;50.276;9.372;2022-12-18T00:53:24;23.50;;;10.65;;
49412;SDS011;35493;50.276;9.372;2022-12-18T00:55:52;26.10;;;9.93;;
49412;SDS011;35493;50.276;9.372;2022-12-18T00:58:20;20.33;;;9.10;;
49412;SDS011;35493;50.276;9.372;2022-12-18T01:00:47;22.98;;;9.57;;
49412;SDS011;35493;50.276;9.372;2022-12-18T01:03:14;23.58;;;9.10;;
49412;SDS011;35493;50.276;9.372;2022-12-18T01:05:42;19.20;;;9.57;;
49412;SDS011;35493;50.276;9.372;2022-12-18T01:08:10;17.40;;;8.10;;
49412;SDS011;35493;50.276;9.372;2022-12-18T01:10:39;18.52;;;9.68;;
49412;SDS011;35493;50.276;9.372;2022-12-18T01:13:06;20.33;;;9.60;;
49412;SDS011;35493;50.276;9.372;2022-12-18T01:15:35;17.05;;;8.60;;
49412;SDS011;35493;50.276;9.372;2022-12-18T01:18:02;16.55;;;8.65;;
49412;SDS011;35493;50.276;9.372;2022-12-18T01:20:32;17.75;;;8.68;;
49412;SDS011;35493;50.276;9.372;2022-12-18T01:22:59;22.92;;;9.05;;
49412;SDS011;35493;50.276;9.372;2022-12-18T01:25:27;17.73;;;8.73;;
49412;SDS011;35493;50.276;9.372;2022-12-18T01:27:54;16.08;;;8.10;;
49412;SDS011;35493;50.276;9.372;2022-12-18T01:30:23;20.33;;;9.27;;
49412;SDS011;35493;50.276;9.372;2022-12-18T01:32:53;17.40;;;8.93;;
49412;SDS011;35493;50.276;9.372;2022-12-18T01:35:20;17.33;;;8.25;;
49412;SDS011;35493;50.276;9.372;2022-12-18T01:37:47;18.52;;;8.30;;
49412;SDS011;35493;50.276;9.372;2022-12-18T01:40:14;19.33;;;8.52;;
49412;SDS011;35493;50.276;9.372;2022-12-18T01:42:41;17.73;;;9.18;;
49412;SDS011;35493;50.276;9.372;2022-12-18T01:45:24;22.75;;;9.48;;
49412;SDS011;35493;50.276;9.372;2022-12-18T01:47:55;20.83;;;9.13;;
49412;SDS011;35493;50.276;9.372;2022-12-18T01:50:24;18.80;;;9.23;;
49412;SDS011;35493;50.276;9.372;2022-12-18T01:52:55;18.73;;;9.30;;
49412;SDS011;35493;50.276;9.372;2022-12-18T01:55:25;19.10;;;9.32;;
49412;SDS011;35493;50.276;9.372;2022-12-18T01:57:56;20.13;;;9.25;;
49412;SDS011;35493;50.276;9.372;2022-12-18T02:00:27;16.92;;;8.38;;
49412;SDS011;35493;50.276;9.372;2022-12-18T02:02:56;19.92;;;8.43;;
49412;SDS011;35493;50.276;9.372;2022-12-18T02:05:26;18.58;;;8.98;;
49412;SDS011;35493;50.276;9.372;2022-12-18T02:08:05;17.27;;;8.38;;
49412;SDS011;35493;50.276;9.372;2022-12-18T02:10:40;19.15;;;8.80;;
49412;SDS011;35493;50.276;9.372;2022-12-18T02:13:14;20.10;;;8.93;;
49412;SDS011;35493;50.276;9.372;2022-12-18T02:15:49;18.38;;;8.23;;
49412;SDS011;35493;50.276;9.372;2022-12-18T02:18:24;17.77;;;7.50;;
49412;SDS011;35493;50.276;9.372;2022-12-18T02:20:58;21.17;;;9.13;;
49412;SDS011;35493;50.276;9.372;2022-12-18T02:23:36;17.73;;;8.30;;
49412;SDS011;35493;50.276;9.372;2022-12-18T02:26:19;17.40;;;8.48;;
49412;SDS011;35493;50.276;9.372;2022-12-18T02:28:51;20.00;;;9.02;;
49412;SDS011;35493;50.276;9.372;2022-12-18T02:31:22;18.17;;;7.95;;
49412;SDS011;35493;50.276;9.372;2022-12-18T02:36:22;20.65;;;8.50;;
49412;SDS011;35493;50.276;9.372;2022-12-18T02:38:51;19.85;;;8.50;;
49412;SDS011;35493;50.276;9.372;2022-12-18T02:41:21;15.77;;;8.10;;
49412;SDS011;35493;50.276;9.372;2022-12-18T02:43:53;19.60;;;8.50;;
49412;SDS011;35493;50.276;9.372;2022-12-18T02:46:25;16.48;;;7.95;;
49412;SDS011;35493;50.276;9.372;2022-12-18T02:49:06;19.02;;;8.05;;
49412;SDS011;35493;50.276;9.372;2022-12-18T02:51:44;18.23;;;8.95;;
49412;SDS011;35493;50.276;9.372;2022-12-18T02:54:21;14.32;;;7.50;;
49412;SDS011;35493;50.276;9.372;2022-12-18T02:56:59;16.38;;;8.40;;
49412;SDS011;35493;50.276;9.372;2022-12-18T02:59:36;17.27;;;8.73;;
49412;SDS011;35493;50.276;9.372;2022-12-18T03:02:10;17.73;;;8.00;;
49412;SDS011;35493;50.276;9.372;2022-12-18T03:04:45;17.50;;;7.72;;
49412;SDS011;35493;50.276;9.372;2022-12-18T03:07:18;16.13;;;7.55;;
49412;SDS011;35493;50.276;9.372;2022-12-18T03:09:48;15.18;;;8.00;;
49412;SDS011;35493;50.276;9.372;2022-12-18T03:12:19;17.50;;;7.72;;
49412;SDS011;35493;50.276;9.372;2022-12-18T03:14:55;21.42;;;8.63;;
49412;SDS011;35493;50.276;9.372;2022-12-18T03:17:27;21.83;;;9.23;;
49412;SDS011;35493;50.276;9.372;2022-12-18T03:19:59;23.02;;;7.95;;
49412;SDS011;35493;50.276;9.372;2022-12-18T03:22:32;18.30;;;8.20;;
49412;SDS011;35493;50.276;9.372;2022-12-18T03:25:03;16.55;;;7.93;;
49412;SDS011;35493;50.276;9.372;2022-12-18T03:27:35;21.92;;;8.38;;
49412;SDS011;35493;50.276;9.372;2022-12-18T03:30:08;16.55;;;7.88;;
49412;SDS011;35493;50.276;9.372;2022-12-18T03:32:39;16.00;;;8.25;;
49412;SDS011;35493;50.276;9.372;2022-12-18T03:35:08;14.88;;;7.55;;
49412;SDS011;35493;50.276;9.372;2022-12-18T03:37:38;15.32;;;6.85;;
49412;SDS011;35493;50.276;9.372;2022-12-18T03:40:07;19.20;;;7.55;;
49412;SDS011;35493;50.276;9.372;2022-12-18T03:42:39;15.55;;;7.30;;
49412;SDS011;35493;50.276;9.372;2022-12-18T03:45:12;16.65;;;7.78;;
49412;SDS011;35493;50.276;9.372;2022-12-18T03:47:50;14.30;;;7.47;;
49412;SDS011;35493;50.276;9.372;2022-12-18T03:50:26;15.55;;;6.72;;
49412;SDS011;35493;50.276;9.372;2022-12-18T03:53:01;19.55;;;7.43;;
49412;SDS011;35493;50.276;9.372;2022-12-18T03:55:35;16.98;;;7.30;;
49412;SDS011;35493;50.276;9.372;2022-12-18T03:58:06;16.27;;;7.38;;
49412;SDS011;35493;50.276;9.372;2022-12-18T04:00:56;15.03;;;6.80;;
49412;SDS011;35493;50.276;9.372;2022-12-18T04:03:25;16.75;;;8.57;;
49412;SDS011;35493;50.276;9.372;2022-12-18T04:05:56;15.82;;;7.55;;
49412;SDS011;35493;50.276;9.372;2022-12-18T04:08:28;17.23;;;7.70;;
49412;SDS011;35493;50.276;9.372;2022-12-18T04:11:03;15.10;;;6.53;;
49412;SDS011;35493;50.276;9.372;2022-12-18T04:13:34;18.35;;;6.80;;
49412;SDS011;35493;50.276;9.372;2022-12-18T04:16:06;17.65;;;8.18;;
49412;SDS011;35493;50.276;9.372;2022-12-18T04:18:37;16.73;;;7.68;;
49412;SDS011;35493;50.276;9.372;2022-12-18T04:21:04;18.50;;;8.85;;
49412;SDS011;35493;50.276;9.372;2022-12-18T04:23:32;16.38;;;7.80;;
49412;SDS011;35493;50.276;9.372;2022-12-18T04:25:59;14.55;;;6.65;;
49412;SDS011;35493;50.276;9.372;2022-12-18T04:28:47;15.45;;;6.95;;
49412;SDS011;35493;50.276;9.372;2022-12-18T04:31:14;14.95;;;7.10;;
49412;SDS011;35493;50.276;9.372;2022-12-18T04:33:41;17.42;;;7.10;;
49412;SDS011;35493;50.276;9.372;2022-12-18T04:36:09;15.98;;;6.68;;
49412;SDS011;35493;50.276;9.372;2022-12-18T04:38:38;16.55;;;7.45;;
49412;SDS011;35493;50.276;9.372;2022-12-18T04:41:13;19.38;;;6.70;;
49412;SDS011;35493;50.276;9.372;2022-12-18T04:43:42;17.67;;;7.70;;
49412;SDS011;35493;50.276;9.372;2022-12-18T04:46:11;16.67;;;7.38;;
49412;SDS011;35493;50.276;9.372;2022-12-18T04:48:38;15.27;;;6.85;;
49412;SDS011;35493;50.276;9.372;2022-12-18T04:51:05;19.80;;;8.70;;
49412;SDS011;35493;50.276;9.372;2022-12-18T04:53:32;16.65;;;7.43;;
49412;SDS011;35493;50.276;9.372;2022-12-18T04:56:03;17.08;;;6.88;;
49412;SDS011;35493;50.276;9.372;2022-12-18T04:58:32;19.73;;;7.72;;
49412;SDS011;35493;50.276;9.372;2022-12-18T05:00:58;16.30;;;7.30;;
49412;SDS011;35493;50.276;9.372;2022-12-18T05:03:29;14.23;;;6.88;;
49412;SDS011;35493;50.276;9.372;2022-12-18T05:05:56;14.95;;;6.25;;
49412;SDS011;35493;50.276;9.372;2022-12-18T05:08:23;18.80;;;7.60;;
49412;SDS011;35493;50.276;9.372;2022-12-18T05:10:57;15.98;;;7.18;;
49412;SDS011;35493;50.276;9.372;2022-12-18T05:13:25;15.82;;;7.78;;
49412;SDS011;35493;50.276;9.372;2022-12-18T05:15:52;19.35;;;7.80;;
49412;SDS011;35493;50.276;9.372;2022-12-18T05:18:19;17.80;;;8.02;;
49412;SDS011;35493;50.276;9.372;2022-12-18T05:20:48;17.92;;;7.43;;
49412;SDS011;35493;50.276;9.372;2022-12-18T05:23:15;17.45;;;8.00;;
49412;SDS011;35493;50.276;9.372;2022-12-18T05:25:42;17.27;;;8.15;;
49412;SDS011;35493;50.276;9.372;2022-12-18T05:28:16;16.95;;;7.90;;
49412;SDS011;35493;50.276;9.372;2022-12-18T05:30:44;16.88;;;7.13;;
49412;SDS011;35493;50.276;9.372;2022-12-18T05:33:14;15.55;;;6.65;;
49412;SDS011;35493;50.276;9.372;2022-12-18T05:35:41;13.60;;;6.97;;
49412;SDS011;35493;50.276;9.372;2022-12-18T05:38:09;14.13;;;7.00;;
49412;SDS011;35493;50.276;9.372;2022-12-18T05:40:36;16.25;;;7.60;;
49412;SDS011;35493;50.276;9.372;2022-12-18T05:43:03;16.92;;;7.70;;
49412;SDS011;35493;50.276;9.372;2022-12-18T05:45:30;15.75;;;6.70;;
49412;SDS011;35493;50.276;9.372;2022-12-18T05:47:57;15.05;;;7.30;;
49412;SDS011;35493;50.276;9.372;2022-12-18T05:50:24;18.70;;;7.07;;
49412;SDS011;35493;50.276;9.372;2022-12-18T05:52:51;15.23;;;6.72;;
49412;SDS011;35493;50.276;9.372;2022-12-18T05:55:19;15.82;;;6.50;;
49412;SDS011;35493;50.276;9.372;2022-12-18T05:57:46;16.38;;;6.65;;
49412;SDS011;35493;50.276;9.372;2022-12-18T06:00:13;16.65;;;6.03;;
49412;SDS011;35493;50.276;9.372;2022-12-18T06:02:40;14.20;;;6.05;;
49412;SDS011;35493;50.276;9.372;2022-12-18T06:05:07;14.75;;;7.07;;
49412;SDS011;35493;50.276;9.372;2022-12-18T06:07:36;15.38;;;7.53;;
49412;SDS011;35493;50.276;9.372;2022-12-18T06:10:03;14.73;;;6.43;;
49412;SDS011;35493;50.276;9.372;2022-12-18T06:12:32;14.82;;;6.70;;
49412;SDS011;35493;50.276;9.372;2022-12-18T06:14:58;15.93;;;6.53;;
49412;SDS011;35493;50.276;9.372;2022-12-18T06:17:27;14.95;;;6.63;;
49412;SDS011;35493;50.276;9.372;2022-12-18T06:19:55;12.88;;;6.78;;
49412;SDS011;35493;50.276;9.372;2022-12-18T06:22:22;15.48;;;8.05;;
49412;SDS011;35493;50.276;9.372;2022-12-18T06:24:49;15.43;;;6.85;;
49412;SDS011;35493;50.276;9.372;2022-12-18T06:27:16;16.40;;;7.10;;
49412;SDS011;35493;50.276;9.372;2022-12-18T06:29:44;16.88;;;7.18;;
49412;SDS011;35493;50.276;9.372;2022-12-18T06:32:11;15.98;;;6.75;;
49412;SDS011;35493;50.276;9.372;2022-12-18T06:34:38;15.80;;;7.55;;
49412;SDS011;35493;50.276;9.372;2022-12-18T06:37:05;19.20;;;7.13;;
49412;SDS011;35493;50.276;9.372;2022-12-18T06:39:32;14.77;;;6.10;;
49412;SDS011;35493;50.276;9.372;2022-12-18T06:42:01;14.82;;;6.63;;
49412;SDS011;35493;50.276;9.372;2022-12-18T06:44:29;20.83;;;7.82;;
49412;SDS011;35493;50.276;9.372;2022-12-18T06:46:57;16.10;;;7.35;;
49412;SDS011;35493;50.276;9.372;2022-12-18T06:49:24;15.43;;;7.30;;
49412;SDS011;35493;50.276;9.372;2022-12-18T06:51:51;14.27;;;6.95;;
49412;SDS011;35493;50.276;9.372;2022-12-18T06:54:18;17.40;;;7.10;;
49412;SDS011;35493;50.276;9.372;2022-12-18T06:56:45;17.77;;;6.97;;
49412;SDS011;35493;50.276;9.372;2022-12-18T06:59:12;15.30;;;7.25;;
49412;SDS011;35493;50.276;9.372;2022-12-18T07:01:40;19.73;;;8.63;;
49412;SDS011;35493;50.276;9.372;2022-12-18T07:04:08;19.33;;;7.80;;
49412;SDS011;35493;50.276;9.372;2022-12-18T07:06:35;17.27;;;7.10;;
49412;SDS011;35493;50.276;9.372;2022-12-18T07:09:02;15.27;;;7.30;;
49412;SDS011;35493;50.276;9.372;2022-12-18T07:11:29;16.42;;;7.70;;
49412;SDS011;35493;50.276;9.372;2022-12-18T07:13:58;18.10;;;7.85;;
49412;SDS011;35493;50.276;9.372;2022-12-18T07:16:25;14.73;;;7.05;;
49412;SDS011;35493;50.276;9.372;2022-12-18T07:18:54;16.83;;;7.93;;
49412;SDS011;35493;50.276;9.372;2022-12-18T07:21:23;16.75;;;7.30;;
49412;SDS011;35493;50.276;9.372;2022-12-18T07:23:50;19.45;;;7.65;;
49412;SDS011;35493;50.276;9.372;2022-12-18T07:26:19;16.35;;;7.88;;
49412;SDS011;35493;50.276;9.372;2022-12-18T07:28:46;18.48;;;7.53;;
49412;SDS011;35493;50.276;9.372;2022-12-18T07:31:15;19.33;;;8.85;;
49412;SDS011;35493;50.276;9.372;2022-12-18T07:33:44;17.05;;;7.97;;
49412;SDS011;35493;50.276;9.372;2022-12-18T07:36:12;19.35;;;8.18;;
49412;SDS011;35493;50.276;9.372;2022-12-18T07:38:41;19.27;;;9.25;;
49412;SDS011;35493;50.276;9.372;2022-12-18T07:41:09;20.88;;;9.75;;
49412;SDS011;35493;50.276;9.372;2022-12-18T07:43:38;20.75;;;9.00;;
49412;SDS011;35493;50.276;9.372;2022-12-18T07:46:06;20.13;;;9.75;;
49412;SDS011;35493;50.276;9.372;2022-12-18T07:48:34;20.45;;;9.45;;
49412;SDS011;35493;50.276;9.372;2022-12-18T07:51:01;18.48;;;7.43;;
49412;SDS011;35493;50.276;9.372;2022-12-18T07:53:29;21.92;;;9.40;;
49412;SDS011;35493;50.276;9.372;2022-12-18T07:55:58;20.00;;;8.38;;
49412;SDS011;35493;50.276;9.372;2022-12-18T07:58:27;20.07;;;8.73;;
49412;SDS011;35493;50.276;9.372;2022-12-18T08:00:54;17.13;;;8.30;;
49412;SDS011;35493;50.276;9.372;2022-12-18T08:03:29;18.13;;;8.20;;
49412;SDS011;35493;50.276;9.372;2022-12-18T08:05:57;20.30;;;8.70;;
49412;SDS011;35493;50.276;9.372;2022-12-18T08:08:25;19.27;;;7.90;;
49412;SDS011;35493;50.276;9.372;2022-12-18T08:10:52;19.95;;;8.15;;
49412;SDS011;35493;50.276;9.372;2022-12-18T08:13:21;19.27;;;8.27;;
49412;SDS011;35493;50.276;9.372;2022-12-18T08:15:54;18.27;;;8.10;;
49412;SDS011;35493;50.276;9.372;2022-12-18T08:18:23;19.65;;;8.48;;
49412;SDS011;35493;50.276;9.372;2022-12-18T08:20:50;18.20;;;7.97;;
49412;SDS011;35493;50.276;9.372;2022-12-18T08:23:18;19.67;;;8.27;;
49412;SDS011;35493;50.276;9.372;2022-12-18T08:25:45;22.40;;;7.63;;
49412;SDS011;35493;50.276;9.372;2022-12-18T08:28:12;20.75;;;8.73;;
49412;SDS011;35493;50.276;9.372;2022-12-18T08:30:42;19.90;;;8.60;;
49412;SDS011;35493;50.276;9.372;2022-12-18T08:33:09;18.42;;;7.95;;
49412;SDS011;35493;50.276;9.372;2022-12-18T08:35:36;19.98;;;8.45;;
49412;SDS011;35493;50.276;9.372;2022-12-18T08:38:03;16.02;;;7.20;;
49412;SDS011;35493;50.276;9.372;2022-12-18T08:40:30;19.80;;;7.63;;
49412;SDS011;35493;50.276;9.372;2022-12-18T08:42:57;19.95;;;8.88;;
49412;SDS011;35493;50.276;9.372;2022-12-18T08:45:43;16.17;;;8.13;;
49412;SDS011;35493;50.276;9.372;2022-12-18T08:48:09;20.15;;;8.88;;
49412;SDS011;35493;50.276;9.372;2022-12-18T08:50:36;21.77;;;8.98;;
49412;SDS011;35493;50.276;9.372;2022-12-18T08:53:03;17.63;;;8.38;;
49412;SDS011;35493;50.276;9.372;2022-12-18T08:55:30;15.60;;;7.95;;
49412;SDS011;35493;50.276;9.372;2022-12-18T08:57:57;21.45;;;8.25;;
49412;SDS011;35493;50.276;9.372;2022-12-18T09:00:25;18.52;;;8.18;;
49412;SDS011;35493;50.276;9.372;2022-12-18T09:02:53;21.17;;;8.75;;
49412;SDS011;35493;50.276;9.372;2022-12-18T09:05:20;18.80;;;8.57;;
49412;SDS011;35493;50.276;9.372;2022-12-18T09:07:47;16.60;;;8.50;;
49412;SDS011;35493;50.276;9.372;2022-12-18T09:10:14;18.92;;;8.35;;
49412;SDS011;35493;50.276;9.372;2022-12-18T09:12:41;17.83;;;8.32;;
49412;SDS011;35493;50.276;9.372;2022-12-18T09:15:08;18.52;;;9.15;;
49412;SDS011;35493;50.276;9.372;2022-12-18T09:17:35;21.15;;;9.65;;
49412;SDS011;35493;50.276;9.372;2022-12-18T09:20:04;20.23;;;8.93;;
49412;SDS011;35493;50.276;9.372;2022-12-18T09:22:32;21.00;;;8.82;;
49412;SDS011;35493;50.276;9.372;2022-12-18T09:24:58;21.85;;;8.38;;
49412;SDS011;35493;50.276;9.372;2022-12-18T09:27:26;19.67;;;8.38;;
49412;SDS011;35493;50.276;9.372;2022-12-18T09:29:53;20.75;;;9.00;;
49412;SDS011;35493;50.276;9.372;2022-12-18T09:32:20;19.10;;;7.85;;
49412;SDS011;35493;50.276;9.372;2022-12-18T09:34:47;20.50;;;9.07;;
49412;SDS011;35493;50.276;9.372;2022-12-18T09:37:15;19.30;;;8.82;;
49412;SDS011;35493;50.276;9.372;2022-12-18T09:39:42;22.77;;;9.52;;
49412;SDS011;35493;50.276;9.372;2022-12-18T09:42:09;22.73;;;8.93;;
49412;SDS011;35493;50.276;9.372;2022-12-18T09:44:45;20.13;;;8.60;;
49412;SDS011;35493;50.276;9.372;2022-12-18T09:47:16;19.42;;;8.70;;
49412;SDS011;35493;50.276;9.372;2022-12-18T09:49:49;17.95;;;9.60;;
49412;SDS011;35493;50.276;9.372;2022-12-18T09:52:21;21.73;;;9.48;;
49412;SDS011;35493;50.276;9.372;2022-12-18T09:54:52;23.15;;;8.60;;
49412;SDS011;35493;50.276;9.372;2022-12-18T09:57:23;20.88;;;9.52;;
49412;SDS011;35493;50.276;9.372;2022-12-18T09:59:51;20.80;;;10.27;;
49412;SDS011;35493;50.276;9.372;2022-12-18T10:02:21;20.00;;;9.38;;
49412;SDS011;35493;50.276;9.372;2022-12-18T10:04:54;18.35;;;9.57;;
49412;SDS011;35493;50.276;9.372;2022-12-18T10:07:31;26.30;;;10.82;;
49412;SDS011;35493;50.276;9.372;2022-12-18T10:10:06;26.58;;;10.35;;
49412;SDS011;35493;50.276;9.372;2022-12-18T10:12:45;20.80;;;10.10;;
49412;SDS011;35493;50.276;9.372;2022-12-18T10:15:22;23.13;;;10.57;;
49412;SDS011;35493;50.276;9.372;2022-12-18T10:17:56;22.13;;;10.63;;
49412;SDS011;35493;50.276;9.372;2022-12-18T10:20:31;24.52;;;10.80;;
49412;SDS011;35493;50.276;9.372;2022-12-18T10:23:04;24.75;;;11.13;;
49412;SDS011;35493;50.276;9.372;2022-12-18T10:25:44;27.20;;;11.10;;
49412;SDS011;35493;50.276;9.372;2022-12-18T10:28:20;23.83;;;10.30;;
49412;SDS011;35493;50.276;9.372;2022-12-18T10:30:47;26.73;;;12.43;;
49412;SDS011;35493;50.276;9.372;2022-12-18T10:33:16;25.67;;;11.15;;
49412;SDS011;35493;50.276;9.372;2022-12-18T10:35:44;23.48;;;11.63;;
49412;SDS011;35493;50.276;9.372;2022-12-18T10:38:24;25.73;;;11.25;;
49412;SDS011;35493;50.276;9.372;2022-12-18T10:40:53;23.45;;;10.25;;
49412;SDS011;35493;50.276;9.372;2022-12-18T10:43:23;26.83;;;11.90;;
49412;SDS011;35493;50.276;9.372;2022-12-18T10:45:59;23.08;;;10.90;;
49412;SDS011;35493;50.276;9.372;2022-12-18T10:48:47;27.05;;;11.18;;
49412;SDS011;35493;50.276;9.372;2022-12-18T10:51:21;24.48;;;10.93;;
49412;SDS011;35493;50.276;9.372;2022-12-18T10:53:55;24.52;;;10.60;;
49412;SDS011;35493;50.276;9.372;2022-12-18T10:56:24;25.52;;;11.00;;
49412;SDS011;35493;50.276;9.372;2022-12-18T10:58:57;24.05;;;10.52;;
49412;SDS011;35493;50.276;9.372;2022-12-18T11:01:26;22.83;;;10.75;;
49412;SDS011;35493;50.276;9.372;2022-12-18T11:04:01;21.17;;;10.43;;
49412;SDS011;35493;50.276;9.372;2022-12-18T11:06:33;25.23;;;11.00;;
49412;SDS011;35493;50.276;9.372;2022-12-18T11:09:03;26.85;;;11.52;;
49412;SDS011;35493;50.276;9.372;2022-12-18T11:11:31;29.33;;;11.85;;
49412;SDS011;35493;50.276;9.372;2022-12-18T11:14:00;27.17;;;10.25;;
49412;SDS011;35493;50.276;9.372;2022-12-18T11:16:30;26.42;;;10.27;;
49412;SDS011;35493;50.276;9.372;2022-12-18T11:19:13;29.05;;;10.60;;
49412;SDS011;35493;50.276;9.372;2022-12-18T11:21:47;27.77;;;10.48;;
49412;SDS011;35493;50.276;9.372;2022-12-18T11:24:23;26.13;;;11.40;;
49412;SDS011;35493;50.276;9.372;2022-12-18T11:26:55;25.63;;;10.68;;
49412;SDS011;35493;50.276;9.372;2022-12-18T11:29:23;31.63;;;12.70;;
49412;SDS011;35493;50.276;9.372;2022-12-18T11:31:55;25.13;;;10.40;;
49412;SDS011;35493;50.276;9.372;2022-12-18T11:34:59;22.58;;;9.70;;
49412;SDS011;35493;50.276;9.372;2022-12-18T11:37:30;31.67;;;12.20;;
49412;SDS011;35493;50.276;9.372;2022-12-18T11:40:01;26.70;;;11.23;;
49412;SDS011;35493;50.276;9.372;2022-12-18T11:42:35;28.58;;;11.43;;
49412;SDS011;35493;50.276;9.372;2022-12-18T11:45:14;25.63;;;10.10;;
49412;SDS011;35493;50.276;9.372;2022-12-18T11:47:52;26.55;;;9.98;;
49412;SDS011;35493;50.276;9.372;2022-12-18T11:50:25;28.60;;;10.88;;
49412;SDS011;35493;50.276;9.372;2022-12-18T11:52:55;27.02;;;10.48;;
49412;SDS011;35493;50.276;9.372;2022-12-18T11:55:26;26.83;;;12.18;;
49412;SDS011;35493;50.276;9.372;2022-12-18T11:57:58;30.13;;;11.68;;
49412;SDS011;35493;50.276;9.372;2022-12-18T12:00:32;27.02;;;11.65;;
49412;SDS011;35493;50.276;9.372;2022-12-18T12:03:13;28.17;;;11.68;;
49412;SDS011;35493;50.276;9.372;2022-12-18T12:06:08;30.58;;;11.90;;
49412;SDS011;35493;50.276;9.372;2022-12-18T12:08:43;27.17;;;11.25;;
49412;SDS011;35493;50.276;9.372;2022-12-18T12:11:20;30.05;;;11.02;;
49412;SDS011;35493;50.276;9.372;2022-12-18T12:13:55;28.08;;;12.25;;
49412;SDS011;35493;50.276;9.372;2022-12-18T12:16:35;30.25;;;10.85;;
49412;SDS011;35493;50.276;9.372;2022-12-18T12:19:21;27.27;;;10.85;;
49412;SDS011;35493;50.276;9.372;2022-12-18T12:22:03;29.40;;;11.80;;
49412;SDS011;35493;50.276;9.372;2022-12-18T12:24:37;30.30;;;12.02;;
49412;SDS011;35493;50.276;9.372;2022-12-18T12:27:17;23.37;;;9.33;;
49412;SDS011;35493;50.276;9.372;2022-12-18T12:29:54;27.50;;;12.82;;
49412;SDS011;35493;50.276;9.372;2022-12-18T12:32:36;29.98;;;11.68;;
49412;SDS011;35493;50.276;9.372;2022-12-18T12:35:14;28.92;;;10.57;;
49412;SDS011;35493;50.276;9.372;2022-12-18T12:37:53;29.40;;;11.30;;
49412;SDS011;35493;50.276;9.372;2022-12-18T12:40:27;24.63;;;10.63;;
49412;SDS011;35493;50.276;9.372;2022-12-18T12:42:58;26.88;;;11.05;;
49412;SDS011;35493;50.276;9.372;2022-12-18T12:45:40;32.13;;;12.13;;
49412;SDS011;35493;50.276;9.372;2022-12-18T12:48:15;28.90;;;11.32;;
49412;SDS011;35493;50.276;9.372;2022-12-18T12:50:47;28.95;;;12.60;;
49412;SDS011;35493;50.276;9.372;2022-12-18T12:53:18;32.45;;;11.98;;
49412;SDS011;35493;50.276;9.372;2022-12-18T12:55:51;29.63;;;11.77;;
49412;SDS011;35493;50.276;9.372;2022-12-18T12:58:22;30.65;;;11.88;;
49412;SDS011;35493;50.276;9.372;2022-12-18T13:01:00;29.27;;;11.68;;
49412;SDS011;35493;50.276;9.372;2022-12-18T13:03:36;31.45;;;12.85;;
49412;SDS011;35493;50.276;9.372;2022-12-18T13:06:14;28.85;;;11.30;;
49412;SDS011;35493;50.276;9.372;2022-12-18T13:08:53;27.20;;;10.93;;
49412;SDS011;35493;50.276;9.372;2022-12-18T13:14:31;27.00;;;11.27;;
49412;SDS011;35493;50.276;9.372;2022-12-18T13:20:08;30.27;;;12.80;;
49412;SDS011;35493;50.276;9.372;2022-12-18T13:22:37;31.10;;;12.27;;
49412;SDS011;35493;50.276;9.372;2022-12-18T13:25:27;35.80;;;12.13;;
49412;SDS011;35493;50.276;9.372;2022-12-18T13:28:06;25.70;;;11.15;;
49412;SDS011;35493;50.276;9.372;2022-12-18T13:30:49;30.10;;;11.55;;
49412;SDS011;35493;50.276;9.372;2022-12-18T13:36:16;33.17;;;12.23;;
49412;SDS011;35493;50.276;9.372;2022-12-18T13:39:08;28.05;;;10.95;;
49412;SDS011;35493;50.276;9.372;2022-12-18T13:41:37;32.72;;;12.88;;
49412;SDS011;35493;50.276;9.372;2022-12-18T13:44:11;25.88;;;11.75;;
49412;SDS011;35493;50.276;9.372;2022-12-18T13:46:44;32.88;;;12.82;;
49412;SDS011;35493;50.276;9.372;2022-12-18T13:49:18;33.63;;;12.70;;
49412;SDS011;35493;50.276;9.372;2022-12-18T13:51:49;31.08;;;12.05;;
49412;SDS011;35493;50.276;9.372;2022-12-18T13:54:18;30.50;;;11.77;;
49412;SDS011;35493;50.276;9.372;2022-12-18T13:56:47;34.45;;;11.93;;
49412;SDS011;35493;50.276;9.372;2022-12-18T13:59:17;33.03;;;11.68;;
49412;SDS011;35493;50.276;9.372;2022-12-18T14:01:47;35.83;;;12.70;;
49412;SDS011;35493;50.276;9.372;2022-12-18T14:04:19;47.17;;;19.80;;
49412;SDS011;35493;50.276;9.372;2022-12-18T14:06:51;100.22;;;41.08;;
49412;SDS011;35493;50.276;9.372;2022-12-18T14:09:21;91.20;;;37.53;;
49412;SDS011;35493;50.276;9.372;2022-12-18T14:11:51;69.25;;;29.95;;
49412;SDS011;35493;50.276;9.372;2022-12-18T14:14:41;54.50;;;22.90;;
49412;SDS011;35493;50.276;9.372;2022-12-18T14:17:11;50.72;;;21.20;;
49412;SDS011;35493;50.276;9.372;2022-12-18T14:19:41;42.47;;;20.13;;
49412;SDS011;35493;50.276;9.372;2022-12-18T14:22:14;41.15;;;19.25;;
49412;SDS011;35493;50.276;9.372;2022-12-18T14:24:42;33.88;;;15.05;;
49412;SDS011;35493;50.276;9.372;2022-12-18T14:27:17;30.95;;;14.55;;
49412;SDS011;35493;50.276;9.372;2022-12-18T14:29:48;37.42;;;15.15;;
49412;SDS011;35493;50.276;9.372;2022-12-18T14:32:17;34.15;;;14.95;;
49412;SDS011;35493;50.276;9.372;2022-12-18T14:34:46;37.83;;;16.07;;
49412;SDS011;35493;50.276;9.372;2022-12-18T14:37:14;37.00;;;15.23;;
49412;SDS011;35493;50.276;9.372;2022-12-18T14:39:51;32.42;;;13.07;;
49412;SDS011;35493;50.276;9.372;2022-12-18T14:42:20;32.75;;;14.65;;
49412;SDS011;35493;50.276;9.372;2022-12-18T14:44:47;29.65;;;14.23;;
49412;SDS011;35493;50.276;9.372;2022-12-18T14:47:14;29.50;;;13.70;;
49412;SDS011;35493;50.276;9.372;2022-12-18T14:49:43;32.58;;;13.55;;
49412;SDS011;35493;50.276;9.372;2022-12-18T14:52:17;30.98;;;12.88;;
49412;SDS011;35493;50.276;9.372;2022-12-18T14:54:50;30.75;;;12.93;;
49412;SDS011;35493;50.276;9.372;2022-12-18T14:57:20;32.28;;;13.05;;
49412;SDS011;35493;50.276;9.372;2022-12-18T14:59:49;30.75;;;13.30;;
49412;SDS011;35493;50.276;9.372;2022-12-18T15:02:18;29.83;;;13.02;;
49412;SDS011;35493;50.276;9.372;2022-12-18T15:04:53;35.97;;;14.23;;
49412;SDS011;35493;50.276;9.372;2022-12-18T15:07:27;35.65;;;14.25;;